createdAt,value
2023-03-12T00:00:11.449Z,2.90
2023-03-12T00:02:39.064Z,2.50
2023-03-12T00:05:07.019Z,2.47
2023-03-12T00:07:36.671Z,2.53
2023-03-12T00:10:08.017Z,2.17
2023-03-12T00:12:35.713Z,2.63
2023-03-12T00:15:03.410Z,2.70
2023-03-12T00:17:30.960Z,2.80
2023-03-12T00:19:58.479Z,2.40
2023-03-12T00:22:26.381Z,2.60
2023-03-12T00:24:55.965Z,2.50
2023-03-12T00:27:24.976Z,2.10
2023-03-12T00:29:52.649Z,2.75
2023-03-12T00:32:20.930Z,2.20
2023-03-12T00:34:52.853Z,2.53
2023-03-12T00:37:20.710Z,2.65
2023-03-12T00:39:48.339Z,2.30
2023-03-12T00:42:15.824Z,2.28
2023-03-12T00:44:44.394Z,2.40
2023-03-12T00:47:13.906Z,2.53
2023-03-12T00:49:41.671Z,2.22
2023-03-12T00:52:09.289Z,2.50
2023-03-12T00:54:37.096Z,1.83
2023-03-12T00:57:04.833Z,2.45
2023-03-12T00:59:34.116Z,2.50
2023-03-12T01:02:01.851Z,2.30
2023-03-12T01:04:29.300Z,2.38
2023-03-12T01:06:56.786Z,2.13
2023-03-12T01:09:24.329Z,2.42
2023-03-12T01:11:52.319Z,2.22
2023-03-12T01:14:19.993Z,2.10
2023-03-12T01:16:49.822Z,1.83
2023-03-12T01:19:18.484Z,2.00
2023-03-12T01:21:45.968Z,1.88
2023-03-12T01:24:13.515Z,2.13
2023-03-12T01:26:40.993Z,2.08
2023-03-12T01:29:08.476Z,2.10
2023-03-12T01:31:36.066Z,2.10
2023-03-12T01:34:03.615Z,2.17
2023-03-12T01:36:31.771Z,2.90
2023-03-12T01:38:59.892Z,1.92
2023-03-12T01:41:29.757Z,1.77
2023-03-12T01:43:57.336Z,2.47
2023-03-12T01:46:36.521Z,1.70
2023-03-12T01:49:09.055Z,2.05
2023-03-12T01:52:03.863Z,2.60
2023-03-12T01:55:09.829Z,1.65
2023-03-12T01:57:52.484Z,1.98
2023-03-12T02:00:23.512Z,1.85
2023-03-12T02:02:54.138Z,1.80
2023-03-12T02:05:45.551Z,2.25
2023-03-12T02:08:14.841Z,1.85
2023-03-12T02:10:42.571Z,1.55
2023-03-12T02:13:11.450Z,1.88
2023-03-12T02:15:44.409Z,1.88
2023-03-12T02:18:16.948Z,1.73
2023-03-12T02:21:05.413Z,1.70
2023-03-12T02:23:42.975Z,1.75
2023-03-12T02:26:11.987Z,1.70
2023-03-12T02:28:44.228Z,1.88
2023-03-12T02:31:20.206Z,1.63
2023-03-12T02:33:47.934Z,1.70
2023-03-12T02:36:15.552Z,1.40
2023-03-12T02:38:47.255Z,1.85
2023-03-12T02:41:15.180Z,1.75
2023-03-12T02:43:46.295Z,1.67
2023-03-12T02:46:14.826Z,1.70
2023-03-12T02:48:42.437Z,1.52
2023-03-12T02:51:10.304Z,1.80
2023-03-12T02:53:37.846Z,2.03
2023-03-12T02:56:06.719Z,1.40
2023-03-12T02:58:34.284Z,1.70
2023-03-12T03:01:02.589Z,1.10
2023-03-12T03:03:30.283Z,1.67
2023-03-12T03:05:58.367Z,1.40
2023-03-12T03:08:26.044Z,1.08
2023-03-12T03:10:54.322Z,1.58
2023-03-12T03:13:24.602Z,1.40
2023-03-12T03:15:52.421Z,1.70
2023-03-12T03:18:19.923Z,1.50
2023-03-12T03:20:55.531Z,1.45
2023-03-12T03:23:23.404Z,1.35
2023-03-12T03:25:52.983Z,1.33
2023-03-12T03:28:21.612Z,1.40
2023-03-12T03:30:49.571Z,1.17
2023-03-12T03:33:17.225Z,1.38
2023-03-12T03:35:44.902Z,1.42
2023-03-12T03:38:13.265Z,1.55
2023-03-12T03:40:40.804Z,1.10
2023-03-12T03:43:08.380Z,1.40
2023-03-12T03:45:35.942Z,1.30
2023-03-12T03:48:03.753Z,1.50
2023-03-12T03:50:31.579Z,1.58
2023-03-12T03:52:59.319Z,1.42
2023-03-12T03:55:27.249Z,1.40
2023-03-12T03:57:55.152Z,1.48
2023-03-12T04:00:22.829Z,1.30
2023-03-12T04:02:55.576Z,1.55
2023-03-12T04:05:23.678Z,1.38
2023-03-12T04:07:53.653Z,1.50
2023-03-12T04:10:25.047Z,1.55
2023-03-12T04:12:53.092Z,1.30
2023-03-12T04:15:21.022Z,1.33
2023-03-12T04:17:50.120Z,1.48
2023-03-12T04:20:18.332Z,1.38
2023-03-12T04:22:46.036Z,1.33
2023-03-12T04:25:13.602Z,1.30
2023-03-12T04:27:41.301Z,1.20
2023-03-12T04:30:09.654Z,1.92
2023-03-12T04:32:38.983Z,1.48
2023-03-12T04:35:06.993Z,1.10
2023-03-12T04:37:35.094Z,1.33
2023-03-12T04:40:07.646Z,1.30
2023-03-12T04:42:36.325Z,1.63
2023-03-12T04:45:06.415Z,1.30
2023-03-12T04:47:36.192Z,1.13
2023-03-12T04:50:04.328Z,1.30
2023-03-12T04:52:32.757Z,1.42
2023-03-12T04:55:00.675Z,1.50
2023-03-12T04:57:28.571Z,1.30
2023-03-12T04:59:56.277Z,1.35
2023-03-12T05:02:24.969Z,1.30
2023-03-12T05:04:56.282Z,1.40
2023-03-12T05:07:24.469Z,1.23
2023-03-12T05:09:52.060Z,1.30
2023-03-12T05:12:19.686Z,1.52
2023-03-12T05:14:47.190Z,1.35
2023-03-12T05:17:14.951Z,1.50
2023-03-12T05:19:42.430Z,1.13
2023-03-12T05:22:10.012Z,1.30
2023-03-12T05:24:38.048Z,1.20
2023-03-12T05:27:08.433Z,1.92
2023-03-12T05:29:36.114Z,1.30
2023-03-12T05:32:05.136Z,1.23
2023-03-12T05:34:33.530Z,1.30
2023-03-12T05:37:02.028Z,1.00
2023-03-12T05:39:31.200Z,1.10
2023-03-12T05:42:05.081Z,1.27
2023-03-12T05:44:34.988Z,1.30
2023-03-12T05:47:02.670Z,1.15
2023-03-12T05:49:31.113Z,1.05
2023-03-12T05:51:59.358Z,1.10
2023-03-12T05:54:27.494Z,0.77
2023-03-12T05:56:56.251Z,1.00
2023-03-12T05:59:25.494Z,1.10
2023-03-12T06:01:54.430Z,0.80
2023-03-12T06:04:22.019Z,0.90
2023-03-12T06:06:49.553Z,1.13
2023-03-12T06:09:17.230Z,1.20
2023-03-12T06:11:44.775Z,1.25
2023-03-12T06:14:13.161Z,1.15
2023-03-12T06:16:41.111Z,1.02
2023-03-12T06:19:08.591Z,0.90
2023-03-12T06:21:36.422Z,1.30
2023-03-12T06:24:06.494Z,1.13
2023-03-12T06:26:53.960Z,1.10
2023-03-12T06:33:27.948Z,1.10
2023-03-12T06:35:59.092Z,1.33
2023-03-12T06:38:26.742Z,1.05
2023-03-12T06:41:09.681Z,1.20
2023-03-12T06:43:38.547Z,1.38
2023-03-12T06:46:08.190Z,1.10
2023-03-12T06:48:41.655Z,1.25
2023-03-12T06:51:10.789Z,1.08
2023-03-12T06:53:41.789Z,1.38
2023-03-12T06:56:11.170Z,1.35
2023-03-12T06:58:38.954Z,1.55
2023-03-12T07:01:06.768Z,1.02
2023-03-12T07:03:34.584Z,0.90
2023-03-12T07:06:02.273Z,0.98
2023-03-12T07:08:32.630Z,1.35
2023-03-12T07:11:03.740Z,1.00
2023-03-12T07:13:31.211Z,1.20
2023-03-12T07:15:58.739Z,1.10
2023-03-12T07:18:26.796Z,0.90
2023-03-12T07:20:54.735Z,1.00
2023-03-12T07:23:23.557Z,1.30
2023-03-12T07:25:51.957Z,1.40
2023-03-12T07:28:20.193Z,1.17
2023-03-12T07:30:50.825Z,1.50
2023-03-12T07:33:20.684Z,1.42
2023-03-12T07:35:51.460Z,1.70
2023-03-12T07:38:19.547Z,1.58
2023-03-12T07:40:58.317Z,1.30
2023-03-12T07:43:26.531Z,1.27
2023-03-12T07:45:55.480Z,1.10
2023-03-12T07:48:23.099Z,1.33
2023-03-12T07:50:50.966Z,1.02
2023-03-12T07:53:18.966Z,1.35
2023-03-12T07:55:48.148Z,1.30
2023-03-12T07:58:16.980Z,1.40
2023-03-12T08:00:45.152Z,0.90
2023-03-12T08:03:13.669Z,1.15
2023-03-12T08:05:41.711Z,1.27
2023-03-12T08:08:09.935Z,1.50
2023-03-12T08:10:37.608Z,1.42
2023-03-12T08:13:05.243Z,1.50
2023-03-12T08:15:33.613Z,1.20
2023-03-12T08:18:01.608Z,1.35
2023-03-12T08:20:29.413Z,1.50
2023-03-12T08:22:56.949Z,1.13
2023-03-12T08:25:25.023Z,1.20
2023-03-12T08:27:53.118Z,1.02
2023-03-12T08:30:21.088Z,1.17
2023-03-12T08:32:48.643Z,1.10
2023-03-12T08:35:16.130Z,1.10
2023-03-12T08:37:43.664Z,0.95
2023-03-12T08:40:14.573Z,0.90
2023-03-12T08:42:44.313Z,1.30
2023-03-12T08:45:12.980Z,1.00
2023-03-12T08:47:41.903Z,1.08
2023-03-12T08:50:14.064Z,0.90
2023-03-12T08:52:41.930Z,1.30
2023-03-12T08:55:11.352Z,1.00
2023-03-12T08:57:38.971Z,1.33
2023-03-12T09:00:11.510Z,1.00
2023-03-12T09:02:39.293Z,1.08
2023-03-12T09:05:07.623Z,1.45
2023-03-12T09:07:35.246Z,1.17
2023-03-12T09:10:02.745Z,1.00
2023-03-12T09:12:30.205Z,1.23
2023-03-12T09:15:03.346Z,1.00
2023-03-12T10:50:35.690Z,1.48
2023-03-12T10:53:21.416Z,1.60
2023-03-12T10:56:13.359Z,1.20
2023-03-12T10:58:47.323Z,1.55
2023-03-12T11:01:24.843Z,1.30
2023-03-12T11:03:54.432Z,1.40
2023-03-12T11:06:26.746Z,1.40
2023-03-12T11:09:20.558Z,1.40
2023-03-12T11:11:49.943Z,1.33
2023-03-12T11:14:29.405Z,1.23
2023-03-12T11:16:57.510Z,1.20
2023-03-12T11:19:33.981Z,1.10
2023-03-12T11:22:08.373Z,1.10
2023-03-12T11:24:36.219Z,1.42
2023-03-12T11:27:20.550Z,1.42
2023-03-12T11:29:50.678Z,1.40
2023-03-12T11:32:24.904Z,1.50
2023-03-12T11:34:53.309Z,1.63
2023-03-12T11:38:16.194Z,1.45
2023-03-12T11:40:56.727Z,1.58
2023-03-12T11:44:02.176Z,1.90
2023-03-12T11:46:56.818Z,1.95
2023-03-12T11:49:44.963Z,2.03
2023-03-12T11:52:34.041Z,1.95
2023-03-12T11:55:16.504Z,2.35
2023-03-12T11:58:00.752Z,1.80
2023-03-12T12:00:48.007Z,1.60
2023-03-12T12:03:30.846Z,1.75
2023-03-12T12:06:10.273Z,1.90
2023-03-12T12:09:32.457Z,2.22
2023-03-12T12:12:31.848Z,2.70
2023-03-12T12:15:17.494Z,3.03
2023-03-12T12:17:58.821Z,2.78
2023-03-12T12:20:34.739Z,2.63
2023-03-12T12:23:23.680Z,2.72
2023-03-12T12:26:05.872Z,2.88
2023-03-12T12:28:54.106Z,2.60
2023-03-12T12:31:24.646Z,2.72
2023-03-12T12:34:17.049Z,2.58
2023-03-12T12:36:51.615Z,2.90
2023-03-12T12:39:32.605Z,2.47
2023-03-12T12:42:06.230Z,2.67
2023-03-12T12:44:50.343Z,2.67
2023-03-12T12:50:01.545Z,2.38
2023-03-12T12:52:29.290Z,2.90
2023-03-12T12:55:28.379Z,3.28
2023-03-12T12:58:05.064Z,2.17
2023-03-12T13:00:45.765Z,2.70
2023-03-12T13:03:22.385Z,2.58
2023-03-12T13:05:52.643Z,2.60
2023-03-12T13:08:44.606Z,2.63
2023-03-12T13:11:18.666Z,2.85
2023-03-12T13:14:12.083Z,2.47
2023-03-12T13:16:47.693Z,2.78
2023-03-12T13:19:15.177Z,2.45
2023-03-12T13:21:54.524Z,2.50
2023-03-12T13:24:32.284Z,2.67
2023-03-12T13:27:25.887Z,2.80
2023-03-12T13:29:59.516Z,2.90
2023-03-12T13:33:03.316Z,2.25
2023-03-12T13:35:36.632Z,2.70
2023-03-12T13:38:07.528Z,2.78
2023-03-12T13:40:37.438Z,2.50
2023-03-12T13:43:17.051Z,2.78
2023-03-12T13:46:07.144Z,2.53
2023-03-12T13:48:36.257Z,2.78
2023-03-12T13:51:15.505Z,2.95
2023-03-12T13:53:48.956Z,2.47
2023-03-12T13:56:25.615Z,2.60
2023-03-12T13:59:00.785Z,2.58
2023-03-12T14:01:50.858Z,2.53
2023-03-12T14:04:22.464Z,2.75
2023-03-12T14:07:24.321Z,2.70
2023-03-12T14:10:26.674Z,2.72
2023-03-12T14:13:24.554Z,2.03
2023-03-12T14:16:10.990Z,2.70
2023-03-12T14:18:40.503Z,2.25
2023-03-12T14:21:13.351Z,2.17
2023-03-12T14:23:47.043Z,2.47
2023-03-12T14:26:21.916Z,2.53
2023-03-12T14:29:00.715Z,2.63
2023-03-12T14:31:31.060Z,2.53
2023-03-12T14:34:00.741Z,2.75
2023-03-12T14:36:37.582Z,2.80
2023-03-12T14:39:25.274Z,2.65
2023-03-12T14:42:10.963Z,2.67
2023-03-12T14:44:39.814Z,2.67
2023-03-12T14:47:13.117Z,2.67
2023-03-12T14:49:45.941Z,3.05
2023-03-12T14:52:25.820Z,3.60
2023-03-12T14:55:07.904Z,3.53
2023-03-12T14:57:35.403Z,3.55
2023-03-12T15:00:03.071Z,3.75
2023-03-12T15:02:31.912Z,3.60
2023-03-12T15:05:01.782Z,3.75
2023-03-12T15:07:34.896Z,3.65
2023-03-12T15:10:07.134Z,4.03
2023-03-12T15:12:37.358Z,4.45
2023-03-12T15:15:11.468Z,3.95
2023-03-12T15:17:39.074Z,4.40
2023-03-12T15:20:09.519Z,4.18
2023-03-12T15:22:37.955Z,4.07
2023-03-12T15:25:25.343Z,4.28
2023-03-12T15:28:15.807Z,4.07
2023-03-12T15:30:43.962Z,4.22
2023-03-12T15:33:13.106Z,4.55
2023-03-12T15:36:06.611Z,4.28
2023-03-12T15:38:38.418Z,4.47
2023-03-12T15:41:12.194Z,4.13
2023-03-12T15:46:12.554Z,4.45
2023-03-12T15:48:41.428Z,4.45
2023-03-12T15:51:26.744Z,3.70
2023-03-12T15:54:25.200Z,4.00
2023-03-12T15:56:52.793Z,3.53
2023-03-12T15:59:25.171Z,4.07
2023-03-12T16:01:55.267Z,3.08
2023-03-12T16:04:24.738Z,3.85
2023-03-12T16:06:53.574Z,3.30
2023-03-12T16:09:26.516Z,2.85
2023-03-12T16:11:55.652Z,2.77
2023-03-12T16:14:27.437Z,2.47
2023-03-12T16:16:55.059Z,3.10
2023-03-12T16:19:23.803Z,3.10
2023-03-12T16:21:51.472Z,2.70
2023-03-12T16:24:18.919Z,2.80
2023-03-12T16:27:00.044Z,3.38
2023-03-12T16:29:33.566Z,2.15
2023-03-12T16:32:01.522Z,2.67
2023-03-12T16:34:29.220Z,2.47
2023-03-12T16:36:56.890Z,2.40
2023-03-12T16:39:24.283Z,3.00
2023-03-12T16:41:51.733Z,2.60
2023-03-12T16:44:21.164Z,2.70
2023-03-12T16:46:48.731Z,2.55
2023-03-12T16:49:18.162Z,2.45
2023-03-12T16:51:45.697Z,2.88
2023-03-12T16:54:13.295Z,2.40
2023-03-12T16:56:46.464Z,2.40
2023-03-12T16:59:26.019Z,2.53
2023-03-12T17:01:53.784Z,2.97
2023-03-12T17:04:21.222Z,2.17
2023-03-12T17:06:48.694Z,2.22
2023-03-12T17:09:16.152Z,2.45
2023-03-12T17:11:43.810Z,1.88
2023-03-12T17:14:20.620Z,2.20
2023-03-12T17:16:48.544Z,1.80
2023-03-12T17:19:16.156Z,2.40
2023-03-12T17:21:44.407Z,2.00
2023-03-12T17:24:14.179Z,2.38
2023-03-12T17:26:43.086Z,1.77
2023-03-12T17:29:10.584Z,2.15
2023-03-12T17:31:38.237Z,1.67
2023-03-12T17:34:05.863Z,1.60
2023-03-12T17:36:36.894Z,1.42
2023-03-12T17:39:04.622Z,1.45
2023-03-12T17:41:33.419Z,1.25
2023-03-12T17:44:02.287Z,1.35
2023-03-12T17:46:31.167Z,1.70
2023-03-12T17:48:59.012Z,1.40
2023-03-12T17:51:26.431Z,1.45
2023-03-12T17:53:54.040Z,1.30
2023-03-12T17:56:21.510Z,1.42
2023-03-12T17:58:49.086Z,1.35
2023-03-12T18:01:17.154Z,1.33
2023-03-12T18:03:44.745Z,1.10
2023-03-12T18:06:12.449Z,1.20
2023-03-12T18:08:39.964Z,1.38
2023-03-12T18:11:07.463Z,1.10
2023-03-12T18:13:34.967Z,1.45
2023-03-12T18:16:02.466Z,0.90
2023-03-12T18:18:30.020Z,1.10
2023-03-12T18:20:57.486Z,1.23
2023-03-12T18:23:26.165Z,1.17
2023-03-12T18:25:53.602Z,1.00
2023-03-12T18:28:21.179Z,1.10
2023-03-12T18:30:48.944Z,1.15
2023-03-12T18:33:17.117Z,1.33
2023-03-12T18:35:44.912Z,1.20
2023-03-12T18:38:12.903Z,2.60
2023-03-12T18:40:40.399Z,1.40
2023-03-12T18:43:07.997Z,1.50
2023-03-12T18:45:35.523Z,1.00
2023-03-12T18:48:02.976Z,1.23
2023-03-12T18:50:30.364Z,1.50
2023-03-12T18:52:57.899Z,1.40
2023-03-12T18:55:25.512Z,1.33
2023-03-12T18:57:53.116Z,1.48
2023-03-12T19:00:20.834Z,1.40
2023-03-12T19:02:48.713Z,1.50
2023-03-12T19:05:16.969Z,1.30
2023-03-12T19:07:44.717Z,1.65
2023-03-12T19:10:13.309Z,1.40
2023-03-12T19:12:54.848Z,1.60
2023-03-12T19:15:24.337Z,1.30
2023-03-12T19:17:53.050Z,1.42
2023-03-12T19:20:21.461Z,1.40
2023-03-12T19:22:48.873Z,1.50
2023-03-12T19:25:16.365Z,1.30
2023-03-12T19:27:43.786Z,1.33
2023-03-12T19:30:11.966Z,1.23
2023-03-12T19:32:44.301Z,1.42
2023-03-12T19:35:13.728Z,1.90
2023-03-12T19:37:41.959Z,1.45
2023-03-12T19:40:10.882Z,1.40
2023-03-12T19:42:38.448Z,1.65
2023-03-12T19:45:06.518Z,1.40
2023-03-12T19:47:34.048Z,1.30
2023-03-12T19:50:01.572Z,1.52
2023-03-12T19:52:30.142Z,1.52
2023-03-12T19:55:04.604Z,1.48
2023-03-12T19:57:34.249Z,1.48
2023-03-12T20:00:02.244Z,1.80
2023-03-12T20:02:31.801Z,1.70
2023-03-12T20:04:59.390Z,1.83
2023-03-12T20:07:26.997Z,1.92
2023-03-12T20:09:54.464Z,1.52
2023-03-12T20:12:22.039Z,1.98
2023-03-12T20:14:49.582Z,1.63
2023-03-12T20:17:17.382Z,1.77
2023-03-12T20:19:44.825Z,1.60
2023-03-12T20:22:12.385Z,1.90
2023-03-12T20:24:39.930Z,1.77
2023-03-12T20:27:07.468Z,1.80
2023-03-12T20:29:35.168Z,2.05
2023-03-12T20:32:02.666Z,2.05
2023-03-12T20:34:30.155Z,2.25
2023-03-12T20:36:58.514Z,2.15
2023-03-12T20:39:25.990Z,1.65
2023-03-12T20:41:53.534Z,1.83
2023-03-12T20:44:21.121Z,2.03
2023-03-12T20:46:48.910Z,1.73
2023-03-12T20:49:16.444Z,1.65
2023-03-12T20:51:44.748Z,1.80
2023-03-12T20:54:12.527Z,1.90
2023-03-12T20:56:43.885Z,1.63
2023-03-12T20:59:12.326Z,1.60
2023-03-12T21:01:39.914Z,1.88
2023-03-12T21:04:07.484Z,1.52
2023-03-12T21:06:35.056Z,1.70
2023-03-12T21:09:03.134Z,1.50
2023-03-12T21:11:31.541Z,1.80
2023-03-12T21:13:59.163Z,1.30
2023-03-12T21:16:26.722Z,1.63
2023-03-12T21:18:58.263Z,1.50
2023-03-12T21:21:25.985Z,1.50
2023-03-12T21:23:53.439Z,1.42
2023-03-12T21:26:20.986Z,1.48
2023-03-12T21:28:48.435Z,1.58
2023-03-12T21:31:17.450Z,1.50
2023-03-12T21:33:45.193Z,2.10
2023-03-12T21:36:14.458Z,1.80
2023-03-12T21:38:45.576Z,1.63
2023-03-12T21:41:15.288Z,2.50
2023-03-12T21:43:43.893Z,2.15
2023-03-12T21:46:24.886Z,2.38
2023-03-12T21:48:52.593Z,2.35
2023-03-12T21:51:20.355Z,3.92
2023-03-12T21:53:47.887Z,3.80
2023-03-12T21:56:15.453Z,2.28
2023-03-12T21:58:45.494Z,2.90
2023-03-12T22:01:15.403Z,2.55
2023-03-12T22:03:44.761Z,2.72
2023-03-12T22:06:13.847Z,2.63
2023-03-12T22:08:42.494Z,2.70
2023-03-12T22:11:10.432Z,3.17
2023-03-12T22:13:37.954Z,3.85
2023-03-12T22:16:08.340Z,3.60
2023-03-12T22:18:40.985Z,3.05
2023-03-12T22:21:16.634Z,3.88
2023-03-12T22:23:44.849Z,3.88
2023-03-12T22:26:12.274Z,4.82
2023-03-12T22:28:40.203Z,4.75
2023-03-12T22:31:09.091Z,4.30
2023-03-12T22:33:36.869Z,5.18
2023-03-12T22:36:10.991Z,4.82
2023-03-12T22:38:40.001Z,5.10
2023-03-12T22:41:22.329Z,7.13
2023-03-12T22:43:52.799Z,5.63
2023-03-12T22:46:22.725Z,4.80
2023-03-12T22:48:56.145Z,4.43
2023-03-12T22:51:24.738Z,6.38
2023-03-12T22:53:53.855Z,5.80
2023-03-12T22:56:21.748Z,5.10
2023-03-12T22:58:49.465Z,5.97
2023-03-12T23:01:21.842Z,6.07
2023-03-12T23:03:50.484Z,4.68
2023-03-12T23:06:20.905Z,5.03
2023-03-12T23:08:48.981Z,6.47
2023-03-12T23:11:17.269Z,4.53
2023-03-12T23:13:45.861Z,5.40
2023-03-12T23:16:19.499Z,9.57
2023-03-12T23:21:20.775Z,5.20
2023-03-12T23:23:49.050Z,11.10
2023-03-12T23:26:27.627Z,7.85
2023-03-12T23:28:57.429Z,7.60
2023-03-12T23:31:25.366Z,9.10
2023-03-12T23:33:53.006Z,12.48
2023-03-12T23:36:22.624Z,4.45
2023-03-12T23:38:50.657Z,7.07
2023-03-12T23:41:21.044Z,5.30
2023-03-12T23:43:49.114Z,5.60
2023-03-12T23:46:20.213Z,7.97
2023-03-12T23:48:48.115Z,5.93
2023-03-12T23:51:18.389Z,5.18
2023-03-12T23:53:48.211Z,6.15
2023-03-12T23:56:19.255Z,6.55
2023-03-12T23:58:47.808Z,5.63
